Accueil
METAR-TAF:

METAR-TAF

Aéroports :

Aéroport de Limoges-Bellegarde

Limoges, France

latitude: 45-52N, longitude: 001-11E, altitude: 396 m

Observation

Le bulletin a été fait il y a 30 minutes, à 18:30 UTC
Vent 5 kt de nord/nord-est
Température 6°C
Humidité 65%
Pression 1034 hPa
Visibilité 10 km ou plus
Ciel couvert à une hauteur de 2900 ft

METAR: LFBL 021830Z AUTO 03005KT 9999 OVC029 06/00 Q1034 NOSIG

Heure: 20:00 (19:00 UTC)

Prévision

Le bulletin a été fait il y a 2 heures et 0 minutes, à 17:00 UTC
Prévision valable du 02 à 18 UTC au 03 à 18 UTC
Vent 4 kt de nord
Visibilité 10 km ou plus
Nuages fragmentés à une hauteur de 3000 ft
Probabilité 30% :
Temporairement
du 03 à 00 UTC au 03 à 06 UTC
Visibilité: 3000 m
brume

TAF: LFBL 021700Z 0218/0318 36004KT 9999 BKN030 PROB30 TEMPO 0300/0306 3000 BR

Observations et prévisions météorologiques de plus de 4000 aéroports (messages METAR et TAF).

Les stations disponibles sont représentées par des disques jaunes et rouges sur la carte.

Passer la souris dessus pour voir le nom de la station.

Cliquer dessus pour voir les observations et prévisions météorologiques.

Pour changer de carte: cliquez sur les boutons verts avec une croix noire pour zoomer, sur le bouton vert avec un tiret pour effectuer un zoom arrière, ou sur les flèches vertes pour les cartes adjacentes.


METAR-TAF: